sensor_id;sensor_type;location;lat;lon;timestamp;temperature;humidity
23637;DHT22;11995;50.842;4.456;2022-12-18T00:01:28;-2.80;99.90
23637;DHT22;11995;50.842;4.456;2022-12-18T00:03:57;-2.80;99.90
23637;DHT22;11995;50.842;4.456;2022-12-18T00:06:26;-2.80;99.90
23637;DHT22;11995;50.842;4.456;2022-12-18T00:08:55;-2.80;99.90
23637;DHT22;11995;50.842;4.456;2022-12-18T00:11:25;-2.80;99.90
23637;DHT22;11995;50.842;4.456;2022-12-18T00:13:55;-2.90;99.90
23637;DHT22;11995;50.842;4.456;2022-12-18T00:16:24;-2.80;99.90
23637;DHT22;11995;50.842;4.456;2022-12-18T00:18:54;-2.80;99.90
23637;DHT22;11995;50.842;4.456;2022-12-18T00:21:22;-2.90;99.90
23637;DHT22;11995;50.842;4.456;2022-12-18T00:23:50;-2.90;99.90
23637;DHT22;11995;50.842;4.456;2022-12-18T00:26:24;-2.90;99.90
23637;DHT22;11995;50.842;4.456;2022-12-18T00:28:53;-2.90;99.90
23637;DHT22;11995;50.842;4.456;2022-12-18T00:31:23;-2.90;99.90
23637;DHT22;11995;50.842;4.456;2022-12-18T00:33:51;-3.00;99.90
23637;DHT22;11995;50.842;4.456;2022-12-18T00:36:24;-3.00;99.90
23637;DHT22;11995;50.842;4.456;2022-12-18T00:38:56;-3.10;99.90
23637;DHT22;11995;50.842;4.456;2022-12-18T00:41:25;-3.20;99.90
23637;DHT22;11995;50.842;4.456;2022-12-18T00:44:13;-3.20;99.90
23637;DHT22;11995;50.842;4.456;2022-12-18T00:46:42;-3.20;99.90
23637;DHT22;11995;50.842;4.456;2022-12-18T00:49:10;-3.20;99.90
23637;DHT22;11995;50.842;4.456;2022-12-18T00:51:37;-3.20;99.90
23637;DHT22;11995;50.842;4.456;2022-12-18T00:54:06;-3.30;99.90
23637;DHT22;11995;50.842;4.456;2022-12-18T00:56:36;-3.30;99.90
23637;DHT22;11995;50.842;4.456;2022-12-18T00:59:04;-3.30;99.90
23637;DHT22;11995;50.842;4.456;2022-12-18T01:01:32;-3.20;99.90
23637;DHT22;11995;50.842;4.456;2022-12-18T01:04:01;-3.20;99.90
23637;DHT22;11995;50.842;4.456;2022-12-18T01:06:29;-3.20;99.90
23637;DHT22;11995;50.842;4.456;2022-12-18T01:08:58;-3.10;99.90
23637;DHT22;11995;50.842;4.456;2022-12-18T01:11:25;-3.20;99.90
23637;DHT22;11995;50.842;4.456;2022-12-18T01:13:54;-3.30;99.90
23637;DHT22;11995;50.842;4.456;2022-12-18T01:16:22;-3.30;99.90
23637;DHT22;11995;50.842;4.456;2022-12-18T01:18:52;-3.30;99.90
23637;DHT22;11995;50.842;4.456;2022-12-18T01:21:21;-3.30;99.90
23637;DHT22;11995;50.842;4.456;2022-12-18T01:23:51;-3.30;99.90
23637;DHT22;11995;50.842;4.456;2022-12-18T01:26:19;-3.40;99.90
23637;DHT22;11995;50.842;4.456;2022-12-18T01:28:46;-3.40;99.90
23637;DHT22;11995;50.842;4.456;2022-12-18T01:31:19;-3.40;99.90
23637;DHT22;11995;50.842;4.456;2022-12-18T01:33:47;-3.30;99.90
23637;DHT22;11995;50.842;4.456;2022-12-18T01:36:26;-3.30;99.90
23637;DHT22;11995;50.842;4.456;2022-12-18T01:38:52;-3.30;99.90
23637;DHT22;11995;50.842;4.456;2022-12-18T01:41:22;-3.30;99.90
23637;DHT22;11995;50.842;4.456;2022-12-18T01:43:56;-3.30;99.90
23637;DHT22;11995;50.842;4.456;2022-12-18T01:46:25;-3.30;99.90
23637;DHT22;11995;50.842;4.456;2022-12-18T01:48:58;-3.30;99.90
23637;DHT22;11995;50.842;4.456;2022-12-18T01:51:27;-3.30;99.90
23637;DHT22;11995;50.842;4.456;2022-12-18T01:53:58;-3.20;99.90
23637;DHT22;11995;50.842;4.456;2022-12-18T01:56:26;-3.10;99.90
23637;DHT22;11995;50.842;4.456;2022-12-18T01:59:00;-3.10;99.90
23637;DHT22;11995;50.842;4.456;2022-12-18T02:01:29;-3.10;99.90
23637;DHT22;11995;50.842;4.456;2022-12-18T02:04:22;-3.20;99.90
23637;DHT22;11995;50.842;4.456;2022-12-18T02:06:59;-3.20;99.90
23637;DHT22;11995;50.842;4.456;2022-12-18T02:09:31;-3.30;99.90
23637;DHT22;11995;50.842;4.456;2022-12-18T02:14:51;-3.40;99.90
23637;DHT22;11995;50.842;4.456;2022-12-18T02:17:21;-3.40;99.90
23637;DHT22;11995;50.842;4.456;2022-12-18T02:22:41;-3.40;99.90
23637;DHT22;11995;50.842;4.456;2022-12-18T02:25:13;-3.30;99.90
23637;DHT22;11995;50.842;4.456;2022-12-18T02:27:42;-3.20;99.90
23637;DHT22;11995;50.842;4.456;2022-12-18T02:30:11;-3.10;99.90
23637;DHT22;11995;50.842;4.456;2022-12-18T02:32:41;-3.00;99.90
23637;DHT22;11995;50.842;4.456;2022-12-18T02:35:12;-2.90;99.90
23637;DHT22;11995;50.842;4.456;2022-12-18T02:37:40;-2.90;99.90
23637;DHT22;11995;50.842;4.456;2022-12-18T02:40:10;-2.90;99.90
23637;DHT22;11995;50.842;4.456;2022-12-18T02:42:38;-3.10;99.90
23637;DHT22;11995;50.842;4.456;2022-12-18T02:45:06;-3.10;99.90
23637;DHT22;11995;50.842;4.456;2022-12-18T02:47:36;-3.20;99.90
23637;DHT22;11995;50.842;4.456;2022-12-18T02:53:20;-3.30;99.90
23637;DHT22;11995;50.842;4.456;2022-12-18T02:56:14;-3.40;99.90
23637;DHT22;11995;50.842;4.456;2022-12-18T03:01:13;-3.50;99.90
23637;DHT22;11995;50.842;4.456;2022-12-18T03:03:42;-3.60;99.90
23637;DHT22;11995;50.842;4.456;2022-12-18T03:06:17;-3.60;99.90
23637;DHT22;11995;50.842;4.456;2022-12-18T03:08:47;-3.60;99.90
23637;DHT22;11995;50.842;4.456;2022-12-18T03:11:15;-3.50;99.90
23637;DHT22;11995;50.842;4.456;2022-12-18T03:13:53;-3.40;99.90
23637;DHT22;11995;50.842;4.456;2022-12-18T03:16:27;-3.50;99.90
23637;DHT22;11995;50.842;4.456;2022-12-18T03:19:03;-3.50;99.90
23637;DHT22;11995;50.842;4.456;2022-12-18T03:21:33;-3.40;99.90
23637;DHT22;11995;50.842;4.456;2022-12-18T03:23:57;-3.20;99.90
23637;DHT22;11995;50.842;4.456;2022-12-18T03:26:26;-3.00;99.90
23637;DHT22;11995;50.842;4.456;2022-12-18T03:29:02;-2.90;99.90
23637;DHT22;11995;50.842;4.456;2022-12-18T03:31:31;-2.90;99.90
23637;DHT22;11995;50.842;4.456;2022-12-18T03:34:02;-3.10;99.90
23637;DHT22;11995;50.842;4.456;2022-12-18T03:36:30;-3.20;99.90
23637;DHT22;11995;50.842;4.456;2022-12-18T03:38:58;-3.40;99.90
23637;DHT22;11995;50.842;4.456;2022-12-18T03:41:43;-3.50;99.90
23637;DHT22;11995;50.842;4.456;2022-12-18T03:47:09;-3.60;99.90
23637;DHT22;11995;50.842;4.456;2022-12-18T03:49:53;-3.50;99.90
23637;DHT22;11995;50.842;4.456;2022-12-18T03:52:35;-3.60;99.90
23637;DHT22;11995;50.842;4.456;2022-12-18T03:55:00;-3.70;99.90
23637;DHT22;11995;50.842;4.456;2022-12-18T03:57:30;-3.70;99.90
23637;DHT22;11995;50.842;4.456;2022-12-18T04:00:07;-3.70;99.90
23637;DHT22;11995;50.842;4.456;2022-12-18T04:02:36;-3.70;99.90
23637;DHT22;11995;50.842;4.456;2022-12-18T04:05:07;-3.50;99.90
23637;DHT22;11995;50.842;4.456;2022-12-18T04:07:36;-3.60;99.90
23637;DHT22;11995;50.842;4.456;2022-12-18T04:10:06;-3.60;99.90
23637;DHT22;11995;50.842;4.456;2022-12-18T04:12:34;-3.40;99.90
23637;DHT22;11995;50.842;4.456;2022-12-18T04:15:04;-3.30;99.90
23637;DHT22;11995;50.842;4.456;2022-12-18T04:17:32;-3.10;99.90
23637;DHT22;11995;50.842;4.456;2022-12-18T04:19:59;-3.00;99.90
23637;DHT22;11995;50.842;4.456;2022-12-18T04:22:27;-2.90;99.90
23637;DHT22;11995;50.842;4.456;2022-12-18T04:24:55;-3.10;99.90
23637;DHT22;11995;50.842;4.456;2022-12-18T04:27:22;-3.00;99.90
23637;DHT22;11995;50.842;4.456;2022-12-18T04:29:50;-3.00;99.90
23637;DHT22;11995;50.842;4.456;2022-12-18T04:32:17;-3.10;99.90
23637;DHT22;11995;50.842;4.456;2022-12-18T04:34:44;-3.30;99.90
23637;DHT22;11995;50.842;4.456;2022-12-18T04:37:12;-3.40;99.90
23637;DHT22;11995;50.842;4.456;2022-12-18T04:39:40;-3.50;99.90
23637;DHT22;11995;50.842;4.456;2022-12-18T04:42:07;-3.60;99.90
23637;DHT22;11995;50.842;4.456;2022-12-18T04:44:36;-3.70;99.90
23637;DHT22;11995;50.842;4.456;2022-12-18T04:47:04;-3.70;99.90
23637;DHT22;11995;50.842;4.456;2022-12-18T04:49:31;-3.80;99.90
23637;DHT22;11995;50.842;4.456;2022-12-18T04:51:59;-3.90;99.90
23637;DHT22;11995;50.842;4.456;2022-12-18T04:54:26;-4.00;99.90
23637;DHT22;11995;50.842;4.456;2022-12-18T04:56:55;-4.00;99.90
23637;DHT22;11995;50.842;4.456;2022-12-18T04:59:22;-4.10;99.90
23637;DHT22;11995;50.842;4.456;2022-12-18T05:01:50;-4.10;99.90
23637;DHT22;11995;50.842;4.456;2022-12-18T05:04:20;-4.10;99.90
23637;DHT22;11995;50.842;4.456;2022-12-18T05:06:48;-4.10;99.90
23637;DHT22;11995;50.842;4.456;2022-12-18T05:09:15;-4.00;99.90
23637;DHT22;11995;50.842;4.456;2022-12-18T05:11:44;-4.00;99.90
23637;DHT22;11995;50.842;4.456;2022-12-18T05:14:11;-4.10;99.90
23637;DHT22;11995;50.842;4.456;2022-12-18T05:16:40;-4.10;99.90
23637;DHT22;11995;50.842;4.456;2022-12-18T05:19:08;-4.10;99.90
23637;DHT22;11995;50.842;4.456;2022-12-18T05:21:35;-4.10;99.90
23637;DHT22;11995;50.842;4.456;2022-12-18T05:24:04;-4.10;99.90
23637;DHT22;11995;50.842;4.456;2022-12-18T05:26:32;-4.10;99.90
23637;DHT22;11995;50.842;4.456;2022-12-18T05:28:59;-4.10;99.90
23637;DHT22;11995;50.842;4.456;2022-12-18T05:31:28;-4.00;99.90
23637;DHT22;11995;50.842;4.456;2022-12-18T05:33:55;-4.00;99.90
23637;DHT22;11995;50.842;4.456;2022-12-18T05:36:23;-4.10;99.90
23637;DHT22;11995;50.842;4.456;2022-12-18T05:38:52;-4.20;99.90
23637;DHT22;11995;50.842;4.456;2022-12-18T05:41:21;-4.10;99.90
23637;DHT22;11995;50.842;4.456;2022-12-18T05:43:49;-4.20;99.90
23637;DHT22;11995;50.842;4.456;2022-12-18T05:46:17;-4.20;99.90
23637;DHT22;11995;50.842;4.456;2022-12-18T05:48:44;-4.10;99.90
23637;DHT22;11995;50.842;4.456;2022-12-18T05:51:15;-4.10;99.90
23637;DHT22;11995;50.842;4.456;2022-12-18T05:53:43;-4.10;99.90
23637;DHT22;11995;50.842;4.456;2022-12-18T05:56:17;-4.10;99.90
23637;DHT22;11995;50.842;4.456;2022-12-18T05:58:41;-4.10;99.90
23637;DHT22;11995;50.842;4.456;2022-12-18T06:01:15;-4.10;99.90
23637;DHT22;11995;50.842;4.456;2022-12-18T06:03:43;-4.10;99.90
23637;DHT22;11995;50.842;4.456;2022-12-18T06:06:27;-4.20;99.90
23637;DHT22;11995;50.842;4.456;2022-12-18T06:08:51;-4.20;99.90
23637;DHT22;11995;50.842;4.456;2022-12-18T06:11:23;-4.20;99.90
23637;DHT22;11995;50.842;4.456;2022-12-18T06:13:51;-4.20;99.90
23637;DHT22;11995;50.842;4.456;2022-12-18T06:16:19;-4.10;99.90
23637;DHT22;11995;50.842;4.456;2022-12-18T06:18:47;-4.10;99.90
23637;DHT22;11995;50.842;4.456;2022-12-18T06:21:14;-4.00;99.90
23637;DHT22;11995;50.842;4.456;2022-12-18T06:23:42;-4.00;99.90
23637;DHT22;11995;50.842;4.456;2022-12-18T06:26:11;-4.00;99.90
23637;DHT22;11995;50.842;4.456;2022-12-18T06:28:39;-4.00;99.90
23637;DHT22;11995;50.842;4.456;2022-12-18T06:31:07;-4.10;99.90
23637;DHT22;11995;50.842;4.456;2022-12-18T06:33:36;-4.10;99.90
23637;DHT22;11995;50.842;4.456;2022-12-18T06:36:06;-4.10;99.90
23637;DHT22;11995;50.842;4.456;2022-12-18T06:38:35;-4.00;99.90
23637;DHT22;11995;50.842;4.456;2022-12-18T06:41:10;-4.00;99.90
23637;DHT22;11995;50.842;4.456;2022-12-18T06:43:38;-3.90;99.90
23637;DHT22;11995;50.842;4.456;2022-12-18T06:46:06;-3.90;99.90
23637;DHT22;11995;50.842;4.456;2022-12-18T06:48:34;-3.90;99.90
23637;DHT22;11995;50.842;4.456;2022-12-18T06:51:03;-3.80;99.90
23637;DHT22;11995;50.842;4.456;2022-12-18T06:53:32;-3.80;99.90
23637;DHT22;11995;50.842;4.456;2022-12-18T06:56:01;-3.80;99.90
23637;DHT22;11995;50.842;4.456;2022-12-18T06:58:30;-3.90;99.90
23637;DHT22;11995;50.842;4.456;2022-12-18T07:01:05;-3.90;99.90
23637;DHT22;11995;50.842;4.456;2022-12-18T07:03:34;-3.80;99.90
23637;DHT22;11995;50.842;4.456;2022-12-18T07:06:01;-3.70;99.90
23637;DHT22;11995;50.842;4.456;2022-12-18T07:08:30;-3.70;99.90
23637;DHT22;11995;50.842;4.456;2022-12-18T07:10:58;-3.70;99.90
23637;DHT22;11995;50.842;4.456;2022-12-18T07:13:26;-3.70;99.90
23637;DHT22;11995;50.842;4.456;2022-12-18T07:15:53;-3.60;99.90
23637;DHT22;11995;50.842;4.456;2022-12-18T07:18:21;-3.60;99.90
23637;DHT22;11995;50.842;4.456;2022-12-18T07:20:48;-3.40;99.90
23637;DHT22;11995;50.842;4.456;2022-12-18T07:23:16;-3.30;99.90
23637;DHT22;11995;50.842;4.456;2022-12-18T07:25:43;-3.30;99.90
23637;DHT22;11995;50.842;4.456;2022-12-18T07:28:11;-3.40;99.90
23637;DHT22;11995;50.842;4.456;2022-12-18T07:30:39;-3.40;99.90
23637;DHT22;11995;50.842;4.456;2022-12-18T07:33:06;-3.50;99.90
23637;DHT22;11995;50.842;4.456;2022-12-18T07:35:34;-3.40;99.90
23637;DHT22;11995;50.842;4.456;2022-12-18T07:38:02;-3.40;99.90
23637;DHT22;11995;50.842;4.456;2022-12-18T07:40:29;-3.40;99.90
23637;DHT22;11995;50.842;4.456;2022-12-18T07:42:56;-3.30;99.90
23637;DHT22;11995;50.842;4.456;2022-12-18T07:45:24;-3.30;99.90
23637;DHT22;11995;50.842;4.456;2022-12-18T07:47:52;-3.30;99.90
23637;DHT22;11995;50.842;4.456;2022-12-18T07:50:19;-3.20;99.90
23637;DHT22;11995;50.842;4.456;2022-12-18T07:52:47;-3.10;99.90
23637;DHT22;11995;50.842;4.456;2022-12-18T07:55:15;-3.00;99.90
23637;DHT22;11995;50.842;4.456;2022-12-18T07:57:42;-2.90;99.90
23637;DHT22;11995;50.842;4.456;2022-12-18T08:00:11;-2.80;99.90
23637;DHT22;11995;50.842;4.456;2022-12-18T08:02:38;-2.90;99.90
23637;DHT22;11995;50.842;4.456;2022-12-18T08:05:06;-2.90;99.90
23637;DHT22;11995;50.842;4.456;2022-12-18T08:07:37;-3.00;99.90
23637;DHT22;11995;50.842;4.456;2022-12-18T08:10:11;-3.10;99.90
23637;DHT22;11995;50.842;4.456;2022-12-18T08:12:39;-3.20;99.90
23637;DHT22;11995;50.842;4.456;2022-12-18T08:15:11;-3.20;99.90
23637;DHT22;11995;50.842;4.456;2022-12-18T08:17:39;-3.40;99.90
23637;DHT22;11995;50.842;4.456;2022-12-18T08:20:08;-3.40;99.90
23637;DHT22;11995;50.842;4.456;2022-12-18T08:22:37;-3.30;99.90
23637;DHT22;11995;50.842;4.456;2022-12-18T08:25:10;-3.30;99.90
23637;DHT22;11995;50.842;4.456;2022-12-18T08:27:38;-3.10;99.90
23637;DHT22;11995;50.842;4.456;2022-12-18T08:30:07;-3.10;99.90
23637;DHT22;11995;50.842;4.456;2022-12-18T08:32:35;-2.90;99.90
23637;DHT22;11995;50.842;4.456;2022-12-18T08:35:04;-2.80;99.90
23637;DHT22;11995;50.842;4.456;2022-12-18T08:37:33;-2.60;99.90
23637;DHT22;11995;50.842;4.456;2022-12-18T08:40:01;-2.50;99.90
23637;DHT22;11995;50.842;4.456;2022-12-18T08:42:29;-2.40;99.90
23637;DHT22;11995;50.842;4.456;2022-12-18T08:45:14;-2.30;99.90
23637;DHT22;11995;50.842;4.456;2022-12-18T08:47:45;-2.30;99.90
23637;DHT22;11995;50.842;4.456;2022-12-18T08:50:13;-2.10;99.90
23637;DHT22;11995;50.842;4.456;2022-12-18T08:52:47;-2.10;99.90
23637;DHT22;11995;50.842;4.456;2022-12-18T08:55:15;-2.00;99.90
23637;DHT22;11995;50.842;4.456;2022-12-18T08:57:42;-2.00;99.90
23637;DHT22;11995;50.842;4.456;2022-12-18T09:00:11;-2.00;99.90
23637;DHT22;11995;50.842;4.456;2022-12-18T09:02:40;-2.00;99.90
23637;DHT22;11995;50.842;4.456;2022-12-18T09:05:08;-1.90;99.90
23637;DHT22;11995;50.842;4.456;2022-12-18T09:07:36;-1.70;99.90
23637;DHT22;11995;50.842;4.456;2022-12-18T09:10:04;-1.60;99.90
23637;DHT22;11995;50.842;4.456;2022-12-18T09:12:32;-1.60;99.90
23637;DHT22;11995;50.842;4.456;2022-12-18T09:14:59;-1.60;99.90
23637;DHT22;11995;50.842;4.456;2022-12-18T09:17:27;-1.50;99.90
23637;DHT22;11995;50.842;4.456;2022-12-18T09:19:54;-1.40;99.90
23637;DHT22;11995;50.842;4.456;2022-12-18T09:22:22;-1.50;99.90
23637;DHT22;11995;50.842;4.456;2022-12-18T09:24:49;-1.30;99.90
23637;DHT22;11995;50.842;4.456;2022-12-18T09:27:17;-1.00;99.90
23637;DHT22;11995;50.842;4.456;2022-12-18T09:29:44;-1.30;99.90
23637;DHT22;11995;50.842;4.456;2022-12-18T09:32:12;-1.30;99.90
23637;DHT22;11995;50.842;4.456;2022-12-18T09:34:40;-1.20;99.90
23637;DHT22;11995;50.842;4.456;2022-12-18T09:37:07;-1.00;99.90
23637;DHT22;11995;50.842;4.456;2022-12-18T09:39:35;-0.90;99.90
23637;DHT22;11995;50.842;4.456;2022-12-18T09:42:02;-0.90;99.90
23637;DHT22;11995;50.842;4.456;2022-12-18T09:44:42;-1.00;99.90
23637;DHT22;11995;50.842;4.456;2022-12-18T09:47:14;-0.90;99.90
23637;DHT22;11995;50.842;4.456;2022-12-18T09:49:45;-0.70;99.90
23637;DHT22;11995;50.842;4.456;2022-12-18T09:52:19;-0.50;99.90
23637;DHT22;11995;50.842;4.456;2022-12-18T09:55:22;-0.50;99.90
23637;DHT22;11995;50.842;4.456;2022-12-18T09:57:42;-0.40;99.90
23637;DHT22;11995;50.842;4.456;2022-12-18T10:02:43;-0.30;99.90
23637;DHT22;11995;50.842;4.456;2022-12-18T10:05:30;-0.20;99.90
23637;DHT22;11995;50.842;4.456;2022-12-18T10:10:39;-0.10;99.90
23637;DHT22;11995;50.842;4.456;2022-12-18T10:21:10;0.00;99.90
23637;DHT22;11995;50.842;4.456;2022-12-18T10:26:11;-0.20;99.90
23637;DHT22;11995;50.842;4.456;2022-12-18T10:28:41;0.00;99.90
23637;DHT22;11995;50.842;4.456;2022-12-18T10:31:17;0.10;99.90
23637;DHT22;11995;50.842;4.456;2022-12-18T10:33:44;0.10;99.90
23637;DHT22;11995;50.842;4.456;2022-12-18T10:36:12;0.10;99.90
23637;DHT22;11995;50.842;4.456;2022-12-18T10:38:40;-0.10;99.90
23637;DHT22;11995;50.842;4.456;2022-12-18T10:44:12;0.10;99.90
23637;DHT22;11995;50.842;4.456;2022-12-18T10:46:24;0.20;99.90
23637;DHT22;11995;50.842;4.456;2022-12-18T10:48:54;0.50;99.90
23637;DHT22;11995;50.842;4.456;2022-12-18T10:51:29;0.60;99.90
23637;DHT22;11995;50.842;4.456;2022-12-18T10:54:00;0.80;99.90
23637;DHT22;11995;50.842;4.456;2022-12-18T10:56:30;0.90;99.90
23637;DHT22;11995;50.842;4.456;2022-12-18T10:59:04;1.00;99.90
23637;DHT22;11995;50.842;4.456;2022-12-18T11:01:53;0.90;99.90
23637;DHT22;11995;50.842;4.456;2022-12-18T11:04:30;0.90;99.90
23637;DHT22;11995;50.842;4.456;2022-12-18T11:07:06;0.90;99.90
23637;DHT22;11995;50.842;4.456;2022-12-18T11:09:35;0.80;99.90
23637;DHT22;11995;50.842;4.456;2022-12-18T11:14:47;1.00;99.90
23637;DHT22;11995;50.842;4.456;2022-12-18T11:19:56;1.10;99.90
23637;DHT22;11995;50.842;4.456;2022-12-18T11:22:30;1.10;99.90
23637;DHT22;11995;50.842;4.456;2022-12-18T11:25:06;0.90;99.90
23637;DHT22;11995;50.842;4.456;2022-12-18T11:27:32;1.10;99.90
23637;DHT22;11995;50.842;4.456;2022-12-18T11:30:22;1.10;99.90
23637;DHT22;11995;50.842;4.456;2022-12-18T11:33:10;1.20;99.90
23637;DHT22;11995;50.842;4.456;2022-12-18T11:35:42;1.20;99.90
23637;DHT22;11995;50.842;4.456;2022-12-18T11:38:26;1.40;99.90
23637;DHT22;11995;50.842;4.456;2022-12-18T11:43:50;1.50;99.90
23637;DHT22;11995;50.842;4.456;2022-12-18T11:46:36;1.30;99.90
23637;DHT22;11995;50.842;4.456;2022-12-18T11:49:17;1.40;99.90
23637;DHT22;11995;50.842;4.456;2022-12-18T11:54:35;1.30;99.90
23637;DHT22;11995;50.842;4.456;2022-12-18T11:57:07;1.40;99.90
23637;DHT22;11995;50.842;4.456;2022-12-18T11:59:48;1.50;99.90
23637;DHT22;11995;50.842;4.456;2022-12-18T12:08:15;1.50;99.90
23637;DHT22;11995;50.842;4.456;2022-12-18T12:16:04;1.60;99.90
23637;DHT22;11995;50.842;4.456;2022-12-18T12:19:02;1.80;99.90
23637;DHT22;11995;50.842;4.456;2022-12-18T12:21:41;1.90;99.90
23637;DHT22;11995;50.842;4.456;2022-12-18T12:29:59;1.60;99.90
23637;DHT22;11995;50.842;4.456;2022-12-18T12:35:47;1.50;99.90
23637;DHT22;11995;50.842;4.456;2022-12-18T12:41:04;1.30;99.90
23637;DHT22;11995;50.842;4.456;2022-12-18T12:43:37;1.40;99.90
23637;DHT22;11995;50.842;4.456;2022-12-18T12:46:07;1.60;99.90
23637;DHT22;11995;50.842;4.456;2022-12-18T12:51:26;1.90;99.90
23637;DHT22;11995;50.842;4.456;2022-12-18T12:53:56;2.00;99.90
23637;DHT22;11995;50.842;4.456;2022-12-18T12:56:29;1.90;99.90
23637;DHT22;11995;50.842;4.456;2022-12-18T13:02:14;2.00;99.90
23637;DHT22;11995;50.842;4.456;2022-12-18T13:05:20;2.10;99.90
23637;DHT22;11995;50.842;4.456;2022-12-18T13:07:40;2.00;99.90
23637;DHT22;11995;50.842;4.456;2022-12-18T13:13:10;1.90;99.90
23637;DHT22;11995;50.842;4.456;2022-12-18T13:15:43;1.70;99.90
23637;DHT22;11995;50.842;4.456;2022-12-18T13:18:22;1.90;99.90
23637;DHT22;11995;50.842;4.456;2022-12-18T13:20:50;1.80;99.90
23637;DHT22;11995;50.842;4.456;2022-12-18T13:25:55;2.00;99.90
23637;DHT22;11995;50.842;4.456;2022-12-18T13:34:19;2.00;99.90
23637;DHT22;11995;50.842;4.456;2022-12-18T13:36:47;1.90;99.90
23637;DHT22;11995;50.842;4.456;2022-12-18T13:41:53;2.10;99.90
23637;DHT22;11995;50.842;4.456;2022-12-18T13:47:24;2.10;99.90
23637;DHT22;11995;50.842;4.456;2022-12-18T13:49:38;2.00;99.90
23637;DHT22;11995;50.842;4.456;2022-12-18T13:52:28;1.90;99.90
23637;DHT22;11995;50.842;4.456;2022-12-18T13:55:01;2.00;99.90
23637;DHT22;11995;50.842;4.456;2022-12-18T13:57:36;2.00;99.90
23637;DHT22;11995;50.842;4.456;2022-12-18T14:00:27;2.00;99.90
23637;DHT22;11995;50.842;4.456;2022-12-18T14:02:57;2.00;99.90
23637;DHT22;11995;50.842;4.456;2022-12-18T14:05:30;2.00;99.90
23637;DHT22;11995;50.842;4.456;2022-12-18T14:08:04;1.80;99.90
23637;DHT22;11995;50.842;4.456;2022-12-18T14:10:32;1.60;99.90
23637;DHT22;11995;50.842;4.456;2022-12-18T14:13:09;1.60;99.90
23637;DHT22;11995;50.842;4.456;2022-12-18T14:15:35;1.60;99.90
23637;DHT22;11995;50.842;4.456;2022-12-18T14:18:19;1.80;99.90
23637;DHT22;11995;50.842;4.456;2022-12-18T14:20:50;1.70;99.90
23637;DHT22;11995;50.842;4.456;2022-12-18T14:23:33;1.50;99.90
23637;DHT22;11995;50.842;4.456;2022-12-18T14:26:17;1.50;99.90
23637;DHT22;11995;50.842;4.456;2022-12-18T14:28:32;1.50;99.90
23637;DHT22;11995;50.842;4.456;2022-12-18T14:31:00;1.50;99.90
23637;DHT22;11995;50.842;4.456;2022-12-18T14:33:28;1.60;99.90
23637;DHT22;11995;50.842;4.456;2022-12-18T14:36:01;1.50;99.90
23637;DHT22;11995;50.842;4.456;2022-12-18T14:38:33;1.70;99.90
23637;DHT22;11995;50.842;4.456;2022-12-18T14:41:04;1.70;99.90
23637;DHT22;11995;50.842;4.456;2022-12-18T14:43:37;1.70;99.90
23637;DHT22;11995;50.842;4.456;2022-12-18T14:46:51;1.70;99.90
23637;DHT22;11995;50.842;4.456;2022-12-18T14:48:40;1.60;99.90
23637;DHT22;11995;50.842;4.456;2022-12-18T14:53:46;1.70;99.90
23637;DHT22;11995;50.842;4.456;2022-12-18T14:56:25;1.70;99.90
23637;DHT22;11995;50.842;4.456;2022-12-18T14:58:55;1.50;99.90
23637;DHT22;11995;50.842;4.456;2022-12-18T15:01:29;1.70;99.90
23637;DHT22;11995;50.842;4.456;2022-12-18T15:03:59;1.90;99.90
23637;DHT22;11995;50.842;4.456;2022-12-18T15:06:30;1.90;99.90
23637;DHT22;11995;50.842;4.456;2022-12-18T15:09:00;2.00;99.90
23637;DHT22;11995;50.842;4.456;2022-12-18T15:11:32;2.00;99.90
23637;DHT22;11995;50.842;4.456;2022-12-18T15:13:58;1.80;99.90
23637;DHT22;11995;50.842;4.456;2022-12-18T15:16:27;1.90;99.90
23637;DHT22;11995;50.842;4.456;2022-12-18T15:18:54;1.70;99.90
23637;DHT22;11995;50.842;4.456;2022-12-18T15:21:22;1.70;99.90
23637;DHT22;11995;50.842;4.456;2022-12-18T15:23:51;1.70;99.90
23637;DHT22;11995;50.842;4.456;2022-12-18T15:26:19;1.70;99.90
23637;DHT22;11995;50.842;4.456;2022-12-18T15:28:52;1.60;99.90
23637;DHT22;11995;50.842;4.456;2022-12-18T15:31:33;1.60;99.90
23637;DHT22;11995;50.842;4.456;2022-12-18T15:36:25;1.60;99.90
23637;DHT22;11995;50.842;4.456;2022-12-18T15:38:54;1.70;99.90
23637;DHT22;11995;50.842;4.456;2022-12-18T15:41:22;1.60;99.90
23637;DHT22;11995;50.842;4.456;2022-12-18T15:43:52;1.60;99.90
23637;DHT22;11995;50.842;4.456;2022-12-18T15:46:24;1.70;99.90
23637;DHT22;11995;50.842;4.456;2022-12-18T15:48:54;1.70;99.90
23637;DHT22;11995;50.842;4.456;2022-12-18T15:51:29;1.80;99.90
23637;DHT22;11995;50.842;4.456;2022-12-18T15:53:55;1.70;99.90
23637;DHT22;11995;50.842;4.456;2022-12-18T15:56:26;1.70;99.90
23637;DHT22;11995;50.842;4.456;2022-12-18T15:59:16;1.80;99.90
23637;DHT22;11995;50.842;4.456;2022-12-18T16:01:50;1.90;99.90
23637;DHT22;11995;50.842;4.456;2022-12-18T16:04:16;1.80;99.90
23637;DHT22;11995;50.842;4.456;2022-12-18T16:06:44;1.80;99.90
23637;DHT22;11995;50.842;4.456;2022-12-18T16:09:11;1.70;99.90
23637;DHT22;11995;50.842;4.456;2022-12-18T16:11:41;1.80;99.90
23637;DHT22;11995;50.842;4.456;2022-12-18T16:14:21;1.70;99.90
23637;DHT22;11995;50.842;4.456;2022-12-18T16:16:51;1.60;99.90
23637;DHT22;11995;50.842;4.456;2022-12-18T16:19:19;1.70;99.90
23637;DHT22;11995;50.842;4.456;2022-12-18T16:21:50;1.70;99.90
23637;DHT22;11995;50.842;4.456;2022-12-18T16:24:27;1.80;99.90
23637;DHT22;11995;50.842;4.456;2022-12-18T16:26:51;1.90;99.90
23637;DHT22;11995;50.842;4.456;2022-12-18T16:29:18;1.90;99.90
23637;DHT22;11995;50.842;4.456;2022-12-18T16:31:47;1.80;99.90
23637;DHT22;11995;50.842;4.456;2022-12-18T16:34:23;1.80;99.90
23637;DHT22;11995;50.842;4.456;2022-12-18T16:36:54;1.80;99.90
23637;DHT22;11995;50.842;4.456;2022-12-18T16:39:22;1.80;99.90
23637;DHT22;11995;50.842;4.456;2022-12-18T16:41:50;1.70;99.90
23637;DHT22;11995;50.842;4.456;2022-12-18T16:44:18;1.70;99.90
23637;DHT22;11995;50.842;4.456;2022-12-18T16:46:47;1.80;99.90
23637;DHT22;11995;50.842;4.456;2022-12-18T16:49:18;1.70;99.90
23637;DHT22;11995;50.842;4.456;2022-12-18T16:51:46;1.60;99.90
23637;DHT22;11995;50.842;4.456;2022-12-18T16:54:14;1.70;99.90
23637;DHT22;11995;50.842;4.456;2022-12-18T16:56:42;1.90;99.90
23637;DHT22;11995;50.842;4.456;2022-12-18T16:59:11;1.90;99.90
23637;DHT22;11995;50.842;4.456;2022-12-18T17:01:38;1.80;99.90
23637;DHT22;11995;50.842;4.456;2022-12-18T17:04:07;2.00;99.90
23637;DHT22;11995;50.842;4.456;2022-12-18T17:06:41;1.90;99.90
23637;DHT22;11995;50.842;4.456;2022-12-18T17:09:11;2.00;99.90
23637;DHT22;11995;50.842;4.456;2022-12-18T17:11:40;2.20;99.90
23637;DHT22;11995;50.842;4.456;2022-12-18T17:14:10;2.20;99.90
23637;DHT22;11995;50.842;4.456;2022-12-18T17:16:38;2.00;99.90
23637;DHT22;11995;50.842;4.456;2022-12-18T17:19:05;2.10;99.90
23637;DHT22;11995;50.842;4.456;2022-12-18T17:21:33;1.90;99.90
23637;DHT22;11995;50.842;4.456;2022-12-18T17:24:01;1.90;99.90
23637;DHT22;11995;50.842;4.456;2022-12-18T17:26:29;2.00;99.90
23637;DHT22;11995;50.842;4.456;2022-12-18T17:28:57;2.10;99.90
23637;DHT22;11995;50.842;4.456;2022-12-18T17:31:28;2.00;99.90
23637;DHT22;11995;50.842;4.456;2022-12-18T17:33:56;2.00;99.90